Time;durP1;ratioP1;P1;durP2;ratioP2;P2;SDS_P1;SDS_P2;PMS_P1;PMS_P2;Temp;Humidity;BMP_temperature;BMP_pressure;BME280_temperature;BME280_humidity;BME280_pressure;Samples;Min_cycle;Max_cycle;Signal;HPM_P1;HPM_P2
2023/02/24 00:00:30;;;;;;;7.18;5.13;;;20.40;84.00;;;;;;5040523;28;20601;-51
2023/02/24 00:03:04;;;;;;;4.90;4.35;;;20.30;83.70;;;;;;5045981;28;20253;-53
2023/02/24 00:05:33;;;;;;;5.18;4.68;;;20.40;83.90;;;;;;5044640;28;20215;-48
2023/02/24 00:07:59;;;;;;;5.35;4.85;;;20.30;83.70;;;;;;5049165;28;20203;-53
2023/02/24 00:10:26;;;;;;;6.40;5.25;;;20.40;83.90;;;;;;5050060;28;20191;-54
2023/02/24 00:12:53;;;;;;;7.60;4.80;;;20.30;83.70;;;;;;5048873;28;20310;-50
2023/02/24 00:15:20;;;;;;;5.28;4.40;;;20.30;83.70;;;;;;5041700;28;20230;-51
2023/02/24 00:17:47;;;;;;;5.03;4.10;;;20.30;84.60;;;;;;5048904;28;20200;-49
2023/02/24 00:20:17;;;;;;;5.78;5.28;;;20.30;83.80;;;;;;5045111;28;20200;-55
2023/02/24 00:22:44;;;;;;;6.70;5.95;;;20.30;83.70;;;;;;5045886;28;20695;-48
2023/02/24 00:25:13;;;;;;;13.10;5.10;;;20.30;83.70;;;;;;5043529;28;20300;-48
2023/02/24 00:27:41;;;;;;;4.82;4.43;;;20.30;83.70;;;;;;5048451;28;20685;-52
2023/02/24 00:30:10;;;;;;;8.95;5.75;;;20.30;83.70;;;;;;5049965;28;20206;-58
2023/02/24 00:32:37;;;;;;;5.28;3.90;;;20.30;83.80;;;;;;5041590;28;20339;-51
2023/02/24 00:35:04;;;;;;;5.43;3.97;;;20.30;83.70;;;;;;5050468;28;20283;-54
2023/02/24 00:37:32;;;;;;;5.90;4.80;;;20.30;84.50;;;;;;5043809;28;20207;-50
2023/02/24 00:39:59;;;;;;;5.50;3.92;;;20.20;83.60;;;;;;5045985;28;20199;-49
2023/02/24 00:42:26;;;;;;;5.75;4.80;;;20.20;83.60;;;;;;5050146;28;20206;-55
2023/02/24 00:44:53;;;;;;;5.97;4.32;;;20.20;83.60;;;;;;5041821;28;20199;-53
2023/02/24 00:47:21;;;;;;;6.30;4.50;;;20.20;83.60;;;;;;5037351;28;20567;-50
2023/02/24 00:49:49;;;;;;;4.80;3.97;;;20.20;83.60;;;;;;5048679;28;20231;-52
2023/02/24 00:52:17;;;;;;;5.00;4.47;;;20.20;83.50;;;;;;5043226;28;20223;-54
2023/02/24 00:54:47;;;;;;;7.10;4.35;;;20.20;83.60;;;;;;5045049;28;20196;-50
2023/02/24 00:57:16;;;;;;;4.97;4.50;;;20.20;83.50;;;;;;5047137;28;20218;-51
2023/02/24 00:59:46;;;;;;;3.83;3.47;;;20.20;83.50;;;;;;5041631;28;20250;-55
2023/02/24 01:02:13;;;;;;;5.15;4.25;;;20.20;83.50;;;;;;5046046;28;20230;-51
2023/02/24 01:04:41;;;;;;;4.60;4.20;;;20.20;83.50;;;;;;5045338;28;20200;-52
2023/02/24 01:07:11;;;;;;;4.82;4.20;;;20.20;83.50;;;;;;5045622;28;20697;-48
2023/02/24 01:09:40;;;;;;;4.07;3.53;;;20.20;83.50;;;;;;5049736;28;20202;-52
2023/02/24 01:15:01;;;;;;;5.63;4.03;;;20.20;83.50;;;;;;5044179;28;20732;-48
2023/02/24 01:17:28;;;;;;;5.03;4.53;;;20.20;83.50;;;;;;5045836;28;20202;-53
2023/02/24 01:19:59;;;;;;;4.05;3.65;;;20.10;83.30;;;;;;5045188;28;20196;-52
2023/02/24 01:22:26;;;;;;;5.95;5.13;;;20.10;83.30;;;;;;5047764;28;20218;-50
2023/02/24 01:24:52;;;;;;;6.38;4.55;;;20.10;83.30;;;;;;5041173;28;20200;-53
2023/02/24 01:27:20;;;;;;;5.93;3.60;;;20.10;83.30;;;;;;5041079;28;20199;-50
2023/02/24 01:29:48;;;;;;;4.35;3.85;;;20.10;83.30;;;;;;5042360;28;20191;-49
2023/02/24 01:32:17;;;;;;;3.85;3.47;;;20.10;83.30;;;;;;5041440;28;20578;-49
2023/02/24 01:34:44;;;;;;;4.32;3.92;;;20.10;83.30;;;;;;5047550;28;20253;-51
2023/02/24 01:37:15;;;;;;;4.70;3.63;;;20.10;83.20;;;;;;5043865;28;20207;-49
2023/02/24 01:39:42;;;;;;;4.28;3.80;;;20.10;83.20;;;;;;5044912;28;20292;-52
2023/02/24 01:42:17;;;;;;;4.70;4.13;;;20.10;83.20;;;;;;5042622;28;20195;-54
2023/02/24 01:45:12;;;;;;;5.72;4.13;;;20.10;83.20;;;;;;5047486;28;20210;-57
2023/02/24 01:47:39;;;;;;;4.13;3.50;;;20.10;83.20;;;;;;5048323;28;20196;-55
2023/02/24 01:50:09;;;;;;;3.80;3.50;;;20.10;83.60;;;;;;5040700;28;20290;-50
2023/02/24 01:52:37;;;;;;;5.35;4.28;;;20.10;83.20;;;;;;5046841;28;20223;-48
2023/02/24 01:55:12;;;;;;;4.50;3.95;;;20.10;83.20;;;;;;5042324;28;20188;-49
2023/02/24 01:57:40;;;;;;;8.32;4.10;;;20.10;83.20;;;;;;5042293;28;20256;-49
2023/02/24 02:00:18;;;;;;;4.43;4.05;;;20.10;83.10;;;;;;5045639;28;20291;-53
2023/02/24 02:02:49;;;;;;;5.30;3.90;;;20.10;83.10;;;;;;5044107;28;20230;-51
2023/02/24 02:05:17;;;;;;;5.50;4.05;;;20.10;83.10;;;;;;5045910;28;20191;-48
2023/02/24 02:07:45;;;;;;;3.20;3.00;;;20.00;83.00;;;;;;5047632;28;20211;-50
2023/02/24 02:10:17;;;;;;;5.30;3.55;;;20.00;83.00;;;;;;5044484;28;20694;-48
2023/02/24 02:12:44;;;;;;;4.22;3.58;;;20.00;82.90;;;;;;5047758;28;20580;-51
2023/02/24 02:15:15;;;;;;;4.75;3.97;;;20.00;82.90;;;;;;5044698;28;20202;-54
2023/02/24 02:17:51;;;;;;;4.65;3.10;;;20.00;82.90;;;;;;5044719;28;20434;-52
2023/02/24 02:20:59;;;;;;;4.95;3.50;;;20.00;82.90;;;;;;5042272;28;20192;-52
2023/02/24 02:23:56;;;;;;;4.00;3.25;;;20.00;82.90;;;;;;5042594;28;20250;-54
2023/02/24 02:26:53;;;;;;;4.10;3.70;;;20.00;82.90;;;;;;5044390;28;20227;-55
2023/02/24 02:29:48;;;;;;;4.97;3.78;;;20.00;82.80;;;;;;5037691;28;20232;-54
2023/02/24 02:32:39;;;;;;;3.80;3.50;;;20.00;82.80;;;;;;5040964;28;20418;-51
2023/02/24 02:35:11;;;;;;;5.57;3.72;;;20.00;83.60;;;;;;5046475;28;20196;-49
2023/02/24 02:37:47;;;;;;;3.38;3.08;;;20.00;82.80;;;;;;5042964;28;20204;-49
2023/02/24 02:40:22;;;;;;;3.70;3.35;;;20.00;82.80;;;;;;5043948;28;20198;-49
2023/02/24 02:42:56;;;;;;;3.65;3.30;;;19.90;82.70;;;;;;5046359;28;20713;-49
2023/02/24 02:45:29;;;;;;;3.45;2.95;;;20.00;82.80;;;;;;5033662;28;20286;-55
2023/02/24 02:48:03;;;;;;;4.13;3.75;;;20.00;82.80;;;;;;5046183;28;20663;-48
2023/02/24 02:50:36;;;;;;;3.70;3.40;;;20.00;82.80;;;;;;5047187;28;20218;-50
2023/02/24 02:53:07;;;;;;;4.00;3.03;;;20.00;82.70;;;;;;5044891;28;20736;-50
2023/02/24 02:55:40;;;;;;;3.78;3.45;;;20.00;82.70;;;;;;5038330;28;20211;-53
2023/02/24 02:58:13;;;;;;;4.72;3.40;;;20.00;82.70;;;;;;5046233;28;20200;-49
2023/02/24 03:00:48;;;;;;;3.95;3.60;;;19.90;82.60;;;;;;5038102;28;20204;-48
2023/02/24 03:03:17;;;;;;;4.40;3.55;;;19.90;82.60;;;;;;5042696;28;20687;-52
2023/02/24 03:05:50;;;;;;;4.35;3.80;;;19.90;82.60;;;;;;5047021;28;20246;-49
2023/02/24 03:08:24;;;;;;;3.47;3.17;;;19.90;82.60;;;;;;5046544;28;20196;-48
2023/02/24 03:10:53;;;;;;;3.95;3.55;;;19.90;82.60;;;;;;5039644;28;20200;-48
2023/02/24 03:13:24;;;;;;;3.38;3.08;;;19.90;82.50;;;;;;5044480;28;20242;-51
2023/02/24 03:15:53;;;;;;;3.97;3.58;;;19.90;82.50;;;;;;5046459;28;20249;-48
2023/02/24 03:18:27;;;;;;;4.05;2.92;;;19.90;82.60;;;;;;5042659;28;20200;-51
2023/02/24 03:21:00;;;;;;;5.05;3.35;;;19.90;82.50;;;;;;5045422;28;20276;-49
2023/02/24 03:23:30;;;;;;;3.42;3.13;;;19.90;82.50;;;;;;5040671;28;20231;-50
2023/02/24 03:26:06;;;;;;;3.70;3.30;;;19.90;82.50;;;;;;5044439;28;20249;-53
2023/02/24 03:28:36;;;;;;;5.20;3.78;;;19.90;82.50;;;;;;5039827;28;20662;-49
2023/02/24 03:31:07;;;;;;;4.05;3.17;;;19.90;82.50;;;;;;5043707;28;20701;-52
2023/02/24 03:33:39;;;;;;;3.75;3.35;;;19.90;82.40;;;;;;5048707;28;20281;-53
2023/02/24 03:36:08;;;;;;;3.80;3.42;;;19.90;82.50;;;;;;5047420;28;20562;-49
2023/02/24 03:38:37;;;;;;;3.58;2.78;;;19.90;82.40;;;;;;5051429;28;20199;-49
2023/02/24 03:41:09;;;;;;;3.83;2.90;;;19.90;82.40;;;;;;5049895;28;20195;-53
2023/02/24 03:43:41;;;;;;;3.20;2.90;;;19.90;82.40;;;;;;5048311;28;20298;-49
2023/02/24 03:46:08;;;;;;;3.10;2.80;;;19.90;82.40;;;;;;5049660;28;20195;-52
2023/02/24 03:48:43;;;;;;;2.85;2.65;;;19.90;82.30;;;;;;5050208;28;20203;-49
2023/02/24 03:51:15;;;;;;;3.85;3.42;;;19.90;82.30;;;;;;5049203;28;20195;-50
2023/02/24 03:53:53;;;;;;;3.45;2.85;;;19.90;82.30;;;;;;5043170;28;20254;-50
2023/02/24 03:56:29;;;;;;;3.20;2.90;;;19.90;82.30;;;;;;5047797;28;20191;-54
2023/02/24 03:59:11;;;;;;;3.70;2.80;;;19.90;82.30;;;;;;5050473;28;20199;-54
2023/02/24 04:01:46;;;;;;;2.13;1.90;;;19.80;82.20;;;;;;5044701;28;20302;-51
2023/02/24 04:04:26;;;;;;;4.20;3.22;;;19.80;82.10;;;;;;5050030;28;20877;-48
2023/02/24 04:06:59;;;;;;;3.00;2.80;;;19.80;82.10;;;;;;5049082;28;20253;-49
2023/02/24 04:09:36;;;;;;;3.28;2.78;;;19.80;82.10;;;;;;5048541;28;20206;-56
2023/02/24 04:12:12;;;;;;;4.13;3.00;;;19.80;82.10;;;;;;5048202;28;20199;-49
2023/02/24 04:14:46;;;;;;;4.05;3.20;;;19.80;82.10;;;;;;5043599;28;20701;-49
2023/02/24 04:17:19;;;;;;;3.88;2.90;;;19.80;82.10;;;;;;5047695;28;20199;-49
2023/02/24 04:19:49;;;;;;;4.15;3.55;;;19.80;82.10;;;;;;5049587;28;20253;-51
2023/02/24 04:22:23;;;;;;;2.95;2.75;;;19.80;82.00;;;;;;5043273;28;20230;-53
2023/02/24 04:24:54;;;;;;;3.20;2.90;;;19.80;82.00;;;;;;5044280;28;20203;-53
2023/02/24 04:27:21;;;;;;;3.30;3.00;;;19.80;82.00;;;;;;5049290;28;20214;-51
2023/02/24 04:29:51;;;;;;;4.47;2.80;;;19.80;82.00;;;;;;5048948;28;20195;-52
2023/02/24 04:32:22;;;;;;;3.45;3.10;;;19.80;82.00;;;;;;5044907;28;20579;-55
2023/02/24 04:34:49;;;;;;;3.25;2.78;;;19.80;82.00;;;;;;5048669;28;20284;-59
2023/02/24 04:37:21;;;;;;;3.35;3.05;;;19.80;82.00;;;;;;5051236;28;20610;-53
2023/02/24 04:39:49;;;;;;;2.90;2.45;;;19.80;82.00;;;;;;5047274;28;20674;-55
2023/02/24 04:42:18;;;;;;;2.80;2.55;;;19.80;82.00;;;;;;5044676;28;20188;-53
2023/02/24 04:44:45;;;;;;;4.07;3.15;;;19.80;81.90;;;;;;5047490;28;20203;-56
2023/02/24 04:47:12;;;;;;;3.10;2.80;;;19.80;81.90;;;;;;5046213;28;20649;-59
2023/02/24 04:49:39;;;;;;;2.80;2.60;;;19.80;81.90;;;;;;5048447;28;20570;-50
2023/02/24 04:52:07;;;;;;;3.05;2.75;;;19.80;81.80;;;;;;5044707;28;20196;-53
2023/02/24 04:54:36;;;;;;;3.50;2.70;;;19.80;81.80;;;;;;5043164;28;20614;-52
2023/02/24 04:57:05;;;;;;;3.53;2.85;;;19.80;81.80;;;;;;5040423;28;20200;-55
2023/02/24 04:59:32;;;;;;;3.92;2.50;;;19.80;81.80;;;;;;5047333;28;20199;-51
2023/02/24 05:02:00;;;;;;;3.45;2.40;;;19.80;81.80;;;;;;5042841;28;20207;-55
2023/02/24 05:04:28;;;;;;;3.00;2.70;;;19.80;81.80;;;;;;5046963;28;20199;-54
2023/02/24 05:06:56;;;;;;;2.47;2.28;;;19.80;81.70;;;;;;5047161;28;20215;-51
2023/02/24 05:09:28;;;;;;;2.55;2.33;;;19.80;81.70;;;;;;5046987;28;20612;-55
2023/02/24 05:11:59;;;;;;;3.90;2.80;;;19.80;81.70;;;;;;5038851;28;20235;-55
2023/02/24 05:14:26;;;;;;;2.28;2.08;;;19.80;81.70;;;;;;5050980;28;20219;-56
2023/02/24 05:16:58;;;;;;;4.80;3.13;;;19.70;81.50;;;;;;5046946;28;20196;-57
2023/02/24 05:22:10;;;;;;;3.17;2.72;;;19.70;81.60;;;;;;5042271;28;20215;-48
2023/02/24 05:24:37;;;;;;;2.80;2.35;;;19.70;81.50;;;;;;5047044;28;20195;-52
2023/02/24 05:27:06;;;;;;;2.42;2.22;;;19.70;81.50;;;;;;5038864;28;20567;-56
2023/02/24 05:29:35;;;;;;;2.60;2.40;;;19.70;81.50;;;;;;5049556;28;20214;-56
2023/02/24 05:32:04;;;;;;;2.90;2.60;;;19.70;81.50;;;;;;5038058;28;20196;-52
2023/02/24 05:34:32;;;;;;;3.78;2.85;;;19.70;81.50;;;;;;5041808;28;20219;-53
2023/02/24 05:37:02;;;;;;;2.42;2.22;;;19.70;81.50;;;;;;5050303;28;20207;-51
2023/02/24 05:39:29;;;;;;;3.40;2.70;;;19.70;81.40;;;;;;5038171;28;20234;-49
2023/02/24 05:41:57;;;;;;;2.65;2.33;;;19.70;81.40;;;;;;5045396;28;20196;-55
2023/02/24 05:44:26;;;;;;;2.53;2.33;;;19.70;81.40;;;;;;5048948;28;20231;-49
2023/02/24 05:46:57;;;;;;;2.80;2.50;;;19.70;81.40;;;;;;5046896;28;20210;-54
2023/02/24 05:49:27;;;;;;;2.50;2.30;;;19.70;81.30;;;;;;5047921;28;20196;-51
2023/02/24 05:51:56;;;;;;;2.55;2.35;;;19.70;81.30;;;;;;5038661;28;20196;-49
2023/02/24 05:54:27;;;;;;;3.17;2.00;;;19.70;81.30;;;;;;5040763;28;20536;-50
2023/02/24 05:56:56;;;;;;;2.10;1.90;;;19.70;81.30;;;;;;5045590;28;20547;-52
2023/02/24 05:59:24;;;;;;;3.53;2.30;;;19.70;81.30;;;;;;5046141;28;21082;-52
2023/02/24 06:01:52;;;;;;;3.15;2.08;;;19.70;81.30;;;;;;5039832;28;20250;-54
2023/02/24 06:04:38;;;;;;;2.88;2.10;;;19.70;81.30;;;;;;5047104;28;20346;-52
2023/02/24 06:07:06;;;;;;;2.47;2.28;;;19.70;81.30;;;;;;5043173;28;20246;-48
2023/02/24 06:09:34;;;;;;;3.30;2.50;;;19.70;81.30;;;;;;5038552;28;20203;-49
2023/02/24 06:12:01;;;;;;;2.50;2.30;;;19.70;81.20;;;;;;5046552;28;20286;-50
2023/02/24 06:14:29;;;;;;;2.42;2.13;;;19.70;81.20;;;;;;5048031;28;20208;-51
2023/02/24 06:16:56;;;;;;;2.80;2.60;;;19.70;81.20;;;;;;5046374;28;20253;-48
2023/02/24 06:19:24;;;;;;;2.45;1.85;;;19.70;81.20;;;;;;5045548;28;20196;-51
2023/02/24 06:21:51;;;;;;;3.50;2.75;;;19.70;81.40;;;;;;5042266;28;20708;-55
2023/02/24 06:24:18;;;;;;;2.85;2.42;;;19.70;81.00;;;;;;5044209;28;20218;-48
2023/02/24 06:26:45;;;;;;;2.65;2.45;;;19.70;81.00;;;;;;5039942;28;20200;-50
2023/02/24 06:29:13;;;;;;;3.00;2.33;;;19.70;81.00;;;;;;5045393;28;20203;-51
2023/02/24 06:31:42;;;;;;;2.35;2.08;;;19.70;80.90;;;;;;5035851;28;20257;-54
2023/02/24 06:34:10;;;;;;;1.80;1.60;;;19.70;80.90;;;;;;5047584;28;20314;-50
2023/02/24 06:36:37;;;;;;;2.72;2.28;;;19.70;80.80;;;;;;5046276;28;20196;-49
2023/02/24 06:39:06;;;;;;;3.40;2.50;;;19.70;80.80;;;;;;5045327;28;20238;-54
2023/02/24 06:41:33;;;;;;;2.92;2.40;;;19.70;80.70;;;;;;5043378;28;20619;-49
2023/02/24 06:44:00;;;;;;;3.83;2.90;;;19.70;80.80;;;;;;5042692;28;20210;-49
2023/02/24 06:46:27;;;;;;;2.67;2.42;;;19.70;80.70;;;;;;5043803;28;20202;-49
2023/02/24 06:48:56;;;;;;;2.30;1.88;;;19.70;81.50;;;;;;5042799;28;20300;-51
2023/02/24 06:51:28;;;;;;;2.35;2.15;;;19.70;80.70;;;;;;5046286;28;20517;-50
2023/02/24 06:53:56;;;;;;;3.55;2.10;;;19.70;80.70;;;;;;5037855;28;20304;-48
2023/02/24 06:56:23;;;;;;;2.85;1.95;;;19.70;80.70;;;;;;5040576;28;20670;-50
2023/02/24 06:58:52;;;;;;;2.85;2.40;;;19.70;80.70;;;;;;5048977;28;20239;-50
2023/02/24 07:01:20;;;;;;;2.22;1.95;;;19.70;80.70;;;;;;5041379;28;20235;-49
2023/02/24 07:04:02;;;;;;;2.35;2.15;;;19.70;80.70;;;;;;5044743;28;20199;-50
2023/02/24 07:06:33;;;;;;;2.33;2.13;;;19.70;80.60;;;;;;5047590;28;20287;-53
2023/02/24 07:09:01;;;;;;;2.40;1.88;;;19.70;80.50;;;;;;5045417;28;20223;-54
2023/02/24 07:11:28;;;;;;;6.90;2.25;;;19.70;80.50;;;;;;5040304;28;20203;-50
2023/02/24 07:13:56;;;;;;;2.13;1.92;;;19.70;80.70;;;;;;5050998;28;20223;-53
2023/02/24 07:16:24;;;;;;;1.83;1.70;;;19.70;80.50;;;;;;5052140;28;20199;-55
2023/02/24 07:18:55;;;;;;;2.63;1.60;;;19.80;81.40;;;;;;5047465;28;20220;-57
2023/02/24 07:21:23;;;;;;;2.70;2.13;;;19.80;80.70;;;;;;5043799;28;20778;-56
2023/02/24 07:23:55;;;;;;;3.72;2.17;;;19.80;80.70;;;;;;5048218;28;20215;-51
2023/02/24 07:26:24;;;;;;;4.03;2.08;;;19.80;81.10;;;;;;5048127;28;20682;-56
2023/02/24 07:28:53;;;;;;;3.90;1.80;;;19.80;81.10;;;;;;5046914;28;20199;-53
2023/02/24 07:31:22;;;;;;;4.68;2.10;;;19.90;80.90;;;;;;5045827;28;20191;-60
2023/02/24 07:33:52;;;;;;;2.30;2.10;;;19.90;80.90;;;;;;5038124;28;20219;-62
2023/02/24 07:36:22;;;;;;;2.55;1.70;;;19.90;80.90;;;;;;5050934;28;20598;-62
2023/02/24 07:38:52;;;;;;;2.08;1.83;;;19.90;80.90;;;;;;5047345;28;20199;-64
2023/02/24 07:41:21;;;;;;;2.22;1.85;;;20.00;81.20;;;;;;5043011;28;20262;-62
2023/02/24 07:43:50;;;;;;;2.10;1.70;;;20.00;81.20;;;;;;5043715;28;20223;-63
2023/02/24 07:46:19;;;;;;;2.33;1.80;;;20.00;81.30;;;;;;5045515;28;20199;-61
2023/02/24 07:48:46;;;;;;;3.40;1.90;;;20.00;81.50;;;;;;5044446;28;20200;-61
2023/02/24 07:51:15;;;;;;;1.77;1.60;;;20.00;81.50;;;;;;5049205;28;20199;-62
2023/02/24 07:53:44;;;;;;;1.77;1.67;;;20.10;81.60;;;;;;5053997;28;20203;-65
2023/02/24 07:56:16;;;;;;;3.80;1.70;;;20.10;81.70;;;;;;5047688;28;20207;-65
2023/02/24 07:58:44;;;;;;;2.45;2.25;;;20.10;81.90;;;;;;5051646;28;20291;-63
2023/02/24 08:01:21;;;;;;;1.95;1.85;;;20.10;82.00;;;;;;5047816;28;20671;-64
2023/02/24 08:03:48;;;;;;;3.33;2.20;;;20.10;82.00;;;;;;5050606;28;20312;-61
2023/02/24 08:06:25;;;;;;;3.88;2.35;;;20.10;82.10;;;;;;5052672;28;20203;-60
2023/02/24 08:09:15;;;;;;;4.20;2.58;;;20.10;81.70;;;;;;5056647;28;20199;-62
2023/02/24 08:11:45;;;;;;;2.83;2.10;;;20.10;82.00;;;;;;5048790;28;20214;-61
2023/02/24 08:14:13;;;;;;;3.45;2.00;;;20.10;82.00;;;;;;5051876;28;20292;-61
2023/02/24 08:16:41;;;;;;;4.38;2.20;;;20.10;81.60;;;;;;5047395;28;20265;-62
2023/02/24 08:19:11;;;;;;;2.78;2.40;;;19.90;78.70;;;;;;5048761;28;20203;-62
2023/02/24 08:21:40;;;;;;;8.57;2.65;;;19.90;79.20;;;;;;5050494;28;20219;-58
2023/02/24 08:24:16;;;;;;;3.55;2.55;;;19.80;76.60;;;;;;5048017;28;20202;-63
2023/02/24 08:26:45;;;;;;;5.32;2.22;;;19.80;77.20;;;;;;5046991;28;20748;-57
2023/02/24 08:29:12;;;;;;;3.85;2.05;;;19.90;77.60;;;;;;5051764;28;20202;-59
2023/02/24 08:31:39;;;;;;;4.53;1.88;;;19.90;77.50;;;;;;5047148;28;20192;-57
2023/02/24 08:34:05;;;;;;;6.22;2.20;;;20.00;77.70;;;;;;5050749;28;20219;-61
2023/02/24 08:36:32;;;;;;;4.80;2.28;;;20.00;77.60;;;;;;5046835;28;20678;-58
2023/02/24 08:38:59;;;;;;;2.67;1.90;;;20.10;77.70;;;;;;5053065;28;20536;-58
2023/02/24 08:41:43;;;;;;;2.75;2.00;;;20.10;77.60;;;;;;5043051;28;20465;-58
2023/02/24 08:44:17;;;;;;;1.85;1.58;;;20.10;77.60;;;;;;5043653;28;20294;-59
2023/02/24 08:46:44;;;;;;;3.33;1.83;;;20.10;77.60;;;;;;5042208;28;20195;-61
2023/02/24 08:49:15;;;;;;;3.08;2.30;;;20.10;77.60;;;;;;5045938;28;20207;-60
2023/02/24 08:51:43;;;;;;;2.28;1.90;;;20.10;77.60;;;;;;5042385;28;20266;-56
2023/02/24 08:54:14;;;;;;;2.20;2.00;;;20.10;77.60;;;;;;5040913;28;20219;-61
2023/02/24 08:56:43;;;;;;;2.28;1.48;;;20.10;77.60;;;;;;5045676;28;20673;-59
2023/02/24 08:59:27;;;;;;;2.42;1.70;;;20.20;77.80;;;;;;5048365;28;20210;-59
2023/02/24 09:02:16;;;;;;;2.13;1.63;;;20.20;77.80;;;;;;5049206;28;20211;-61
2023/02/24 09:04:43;;;;;;;3.40;1.95;;;20.20;77.80;;;;;;5048378;28;20200;-59
2023/02/24 09:07:14;;;;;;;2.78;1.90;;;20.20;77.80;;;;;;5045055;28;20226;-60
2023/02/24 09:09:41;;;;;;;3.13;1.75;;;20.20;77.80;;;;;;5046052;28;20242;-58
2023/02/24 09:12:11;;;;;;;1.90;1.70;;;20.20;77.80;;;;;;5041363;28;20202;-60
2023/02/24 09:14:39;;;;;;;3.40;1.60;;;20.20;77.80;;;;;;5046610;28;20302;-58
2023/02/24 09:17:09;;;;;;;2.55;1.65;;;20.20;77.80;;;;;;5050654;28;20753;-59
2023/02/24 09:22:32;;;;;;;2.85;1.70;;;20.30;77.90;;;;;;5044949;28;20698;-59
2023/02/24 09:25:17;;;;;;;2.07;1.70;;;20.20;77.80;;;;;;5036799;28;20195;-61
2023/02/24 09:27:46;;;;;;;6.50;1.50;;;20.30;78.00;;;;;;5038181;28;20453;-61
2023/02/24 09:30:34;;;;;;;2.80;1.80;;;20.30;78.80;;;;;;5039478;28;20638;-61
2023/02/24 09:33:05;;;;;;;15.95;2.00;;;20.20;78.20;;;;;;5041116;28;20544;-68
2023/02/24 09:35:35;;;;;;;6.03;2.00;;;20.10;78.30;;;;;;5040484;28;20228;-64
2023/02/24 09:38:04;;;;;;;1.50;1.30;;;20.20;78.40;;;;;;5040306;28;20595;-65
2023/02/24 09:40:39;;;;;;;3.63;1.50;;;20.20;78.50;;;;;;5038171;28;20235;-65
2023/02/24 09:43:16;;;;;;;5.28;1.70;;;20.30;78.60;;;;;;5040740;28;20470;-65
2023/02/24 09:45:52;;;;;;;3.03;1.88;;;20.30;78.60;;;;;;5040431;28;20203;-63
2023/02/24 09:48:25;;;;;;;3.97;1.60;;;20.30;78.60;;;;;;5046419;28;20200;-63
2023/02/24 09:51:02;;;;;;;3.85;1.55;;;20.40;78.90;;;;;;5043141;28;20188;-63
2023/02/24 09:53:37;;;;;;;2.13;1.80;;;20.40;79.00;;;;;;5046408;28;20207;-64
2023/02/24 09:56:16;;;;;;;1.93;1.40;;;20.40;79.10;;;;;;5043889;28;20576;-64
2023/02/24 09:58:47;;;;;;;2.40;1.37;;;20.40;79.10;;;;;;5055072;28;20472;-64
2023/02/24 10:01:43;;;;;;;2.73;1.33;;;20.50;79.30;;;;;;5045300;28;20457;-64
2023/02/24 10:04:31;;;;;;;1.92;1.73;;;20.50;79.50;;;;;;5049843;28;20466;-64
2023/02/24 10:07:02;;;;;;;2.93;1.40;;;20.50;79.60;;;;;;5046804;28;20206;-62
2023/02/24 10:09:35;;;;;;;5.57;1.63;;;20.50;79.70;;;;;;5045517;28;20466;-62
2023/02/24 10:12:06;;;;;;;2.45;1.40;;;20.50;80.40;;;;;;5047071;28;20800;-60
2023/02/24 10:14:38;;;;;;;2.07;1.40;;;20.60;79.80;;;;;;5044569;28;20682;-63
2023/02/24 10:17:23;;;;;;;3.37;1.50;;;20.60;79.80;;;;;;5038051;28;20465;-61
2023/02/24 10:19:58;;;;;;;1.83;1.30;;;20.60;80.00;;;;;;5040698;28;20449;-62
2023/02/24 10:22:33;;;;;;;1.70;1.33;;;20.60;80.00;;;;;;5040967;28;20845;-61
2023/02/24 10:25:11;;;;;;;1.53;1.20;;;20.60;80.00;;;;;;5037965;28;21555;-61
2023/02/24 10:27:51;;;;;;;2.70;1.30;;;20.60;80.00;;;;;;5039373;28;20461;-61
2023/02/24 10:30:39;;;;;;;4.23;1.40;;;20.60;80.10;;;;;;5035953;28;20858;-61
2023/02/24 10:33:17;;;;;;;2.30;1.20;;;20.70;80.20;;;;;;5037967;28;20556;-63
2023/02/24 10:35:44;;;;;;;2.57;1.47;;;20.60;80.10;;;;;;5037691;28;20484;-67
2023/02/24 10:38:11;;;;;;;2.17;1.77;;;20.70;80.20;;;;;;5037764;28;20497;-66
2023/02/24 10:40:47;;;;;;;1.80;1.30;;;20.70;80.30;;;;;;5036741;28;20196;-65
2023/02/24 10:43:18;;;;;;;1.50;1.17;;;20.70;80.30;;;;;;5038633;28;20210;-62
2023/02/24 10:45:47;;;;;;;2.23;1.27;;;20.70;80.40;;;;;;5043587;28;20549;-64
2023/02/24 10:48:23;;;;;;;1.80;1.10;;;20.70;80.40;;;;;;5041309;28;20466;-62
2023/02/24 10:50:53;;;;;;;2.13;1.40;;;20.70;80.40;;;;;;5041236;28;20488;-64
2023/02/24 10:53:33;;;;;;;1.40;1.00;;;20.70;80.40;;;;;;5036600;28;20462;-64
2023/02/24 10:56:25;;;;;;;3.10;1.30;;;20.70;80.40;;;;;;5042589;28;20500;-65
2023/02/24 10:59:19;;;;;;;1.60;1.10;;;20.70;80.40;;;;;;5041768;28;20469;-67
2023/02/24 11:01:58;;;;;;;1.70;1.60;;;20.70;80.50;;;;;;5043301;28;21214;-68
2023/02/24 11:04:53;;;;;;;1.17;0.90;;;20.70;80.50;;;;;;5040495;28;20458;-66
2023/02/24 11:07:24;;;;;;;3.20;1.40;;;20.70;80.50;;;;;;5042477;28;20532;-67
2023/02/24 11:10:10;;;;;;;1.63;1.10;;;20.80;80.60;;;;;;5039794;28;20952;-65
2023/02/24 11:18:18;;;;;;;2.23;1.20;;;20.70;80.60;;;;;;5050338;28;20594;-63
2023/02/24 11:20:48;;;;;;;1.63;1.13;;;20.70;80.60;;;;;;5043436;28;21350;-61
2023/02/24 11:23:18;;;;;;;2.20;1.40;;;20.80;80.60;;;;;;5043671;28;20481;-62
2023/02/24 11:25:49;;;;;;;2.10;1.40;;;20.80;80.60;;;;;;5041223;28;20457;-62
2023/02/24 11:28:40;;;;;;;4.33;1.50;;;20.80;80.60;;;;;;5040952;28;20462;-63
2023/02/24 11:31:20;;;;;;;1.80;1.30;;;20.80;80.70;;;;;;5038528;28;20466;-62
2023/02/24 11:33:54;;;;;;;2.40;1.57;;;20.80;80.60;;;;;;5040728;28;21189;-67
2023/02/24 11:36:33;;;;;;;1.70;1.13;;;20.80;80.60;;;;;;5042315;28;20477;-62
2023/02/24 11:39:10;;;;;;;2.80;1.10;;;20.80;80.50;;;;;;5040017;28;20569;-64
2023/02/24 11:41:42;;;;;;;5.00;1.20;;;20.80;80.40;;;;;;5040641;28;20468;-65
2023/02/24 11:44:15;;;;;;;2.23;1.30;;;20.80;80.40;;;;;;5045019;28;20462;-63
2023/02/24 11:46:48;;;;;;;6.70;1.10;;;20.80;80.60;;;;;;5042934;28;20830;-78
2023/02/24 11:49:27;;;;;;;2.30;1.13;;;20.80;80.60;;;;;;5041181;28;20482;-71
2023/02/24 11:51:56;;;;;;;1.70;1.13;;;20.80;80.60;;;;;;5044772;28;21205;-64
2023/02/24 11:54:25;;;;;;;3.10;1.47;;;20.90;80.70;;;;;;5040782;28;20463;-64
2023/02/24 11:56:56;;;;;;;2.57;1.20;;;20.90;80.70;;;;;;5040203;28;20477;-62
2023/02/24 11:59:33;;;;;;;2.07;1.30;;;20.80;80.40;;;;;;5050841;28;20458;-67
2023/02/24 12:02:06;;;;;;;1.50;1.00;;;20.80;80.40;;;;;;5042441;28;20457;-63
2023/02/24 12:04:40;;;;;;;2.30;1.27;;;20.90;80.50;;;;;;5040589;28;20458;-63
2023/02/24 12:07:14;;;;;;;1.70;1.37;;;20.90;80.50;;;;;;5046217;28;20469;-67
2023/02/24 12:09:46;;;;;;;1.77;1.10;;;20.90;80.60;;;;;;5045606;28;20470;-68
2023/02/24 12:12:18;;;;;;;1.60;1.07;;;20.90;80.50;;;;;;5046708;28;20461;-68
2023/02/24 12:14:50;;;;;;;1.90;1.10;;;20.90;80.60;;;;;;5048458;28;20976;-66
2023/02/24 12:17:23;;;;;;;2.33;0.97;;;20.90;80.60;;;;;;5042827;28;20461;-66
2023/02/24 12:19:58;;;;;;;3.93;1.20;;;20.90;80.60;;;;;;5048880;28;20465;-67
2023/02/24 12:22:32;;;;;;;2.77;1.27;;;20.90;80.60;;;;;;5047210;28;20842;-65
2023/02/24 12:24:58;;;;;;;6.87;1.47;;;20.90;80.60;;;;;;5052883;28;20461;-63
2023/02/24 12:27:38;;;;;;;2.03;1.20;;;20.90;80.60;;;;;;5043644;28;20454;-61
2023/02/24 12:30:34;;;;;;;1.20;1.10;;;20.90;80.60;;;;;;5044130;28;20449;-60
2023/02/24 12:33:15;;;;;;;2.90;1.20;;;20.90;80.60;;;;;;5047799;28;20965;-62
2023/02/24 12:35:46;;;;;;;1.20;1.00;;;20.90;80.60;;;;;;5048188;28;20487;-61
2023/02/24 12:38:34;;;;;;;1.20;1.00;;;20.90;80.60;;;;;;5043344;28;20451;-59
2023/02/24 12:41:15;;;;;;;1.50;1.20;;;20.90;80.60;;;;;;5043723;28;20489;-69
2023/02/24 12:43:49;;;;;;;1.53;1.03;;;20.90;80.60;;;;;;5050616;28;20465;-66
2023/02/24 12:46:23;;;;;;;1.97;1.30;;;20.90;80.60;;;;;;5046234;28;20471;-66
2023/02/24 12:49:17;;;;;;;1.40;1.10;;;20.90;80.50;;;;;;5047437;28;20897;-67
2023/02/24 12:51:57;;;;;;;1.50;1.00;;;20.90;80.50;;;;;;5051163;28;20469;-62
2023/02/24 12:54:33;;;;;;;1.20;0.90;;;20.90;80.50;;;;;;5042711;28;20446;-64
2023/02/24 12:57:08;;;;;;;1.77;1.10;;;20.90;80.50;;;;;;5050568;28;20980;-65
2023/02/24 12:59:39;;;;;;;2.30;1.00;;;20.90;80.50;;;;;;5045648;28;20461;-71
2023/02/24 13:02:13;;;;;;;2.60;1.60;;;20.90;80.60;;;;;;5049760;28;20466;-66
2023/02/24 13:04:49;;;;;;;1.93;1.27;;;20.90;80.50;;;;;;5048051;28;20446;-66
2023/02/24 13:07:35;;;;;;;1.20;1.07;;;21.00;80.60;;;;;;5046283;28;20969;-63
2023/02/24 13:10:16;;;;;;;1.60;1.20;;;20.90;80.50;;;;;;5038812;28;20965;-63
2023/02/24 13:12:51;;;;;;;1.60;1.10;;;21.00;80.70;;;;;;5034776;28;20988;-63
2023/02/24 13:15:21;;;;;;;3.13;1.50;;;21.00;80.60;;;;;;5043825;28;20456;-64
2023/02/24 13:17:50;;;;;;;2.20;1.30;;;20.90;80.50;;;;;;5047040;28;20493;-63
2023/02/24 13:20:27;;;;;;;4.90;1.10;;;20.90;80.50;;;;;;5047094;28;20454;-59
2023/02/24 13:22:54;;;;;;;3.20;1.20;;;21.00;80.50;;;;;;5043702;28;20886;-61
2023/02/24 13:25:27;;;;;;;2.37;1.30;;;20.90;79.50;;;;;;5046260;28;20463;-63
2023/02/24 13:28:00;;;;;;;2.57;1.43;;;20.90;79.50;;;;;;5045775;28;20494;-63